KDYR

Dyersburg Regional Airport

Dyersburg, Tennessee, USA
METAR KDYR 110156Z AUTO 00000KT 7SM CLR M04/M05 A3035 RMK AO2 SLP294 T10391050 FZRANO
Observed Flight Rules
Dec-11 @ 01:56 UTC (30 minutes ago) Visual Flight Rules
Visibility Clouds
7 miles
  • Clear skies
Temperatures Readings
Current -4°C / 25°F
Dewpoint -5°C / 23°F
Humidity 93%
Altimeter 30.35" Hg
Pressure 1029.4 hPa
Elevation 103
METAR KDYR 110156Z AUTO 00000KT 7SM CLR M04/M05 A3035 RMK AO2 SLP294 T10391050 FZRANO
Observed Flight Rules
Dec-11 @ 01:56 UTC
(30 minutes ago)
VFR
Clouds
  • Clear skies
Temperature Dewpoint
-4°C / 25°F -5°C / 23°F
Humidity Altimeter Pressure
93% 30.35" Hg 1029.4 hPa